sensor_id;sensor_type;location;lat;lon;timestamp;P1;durP1;ratioP1;P2;durP2;ratioP2
40907;SDS011;51055;59.436;24.778;2022-10-17T00:01:04;8.68;;;1.58;;
40907;SDS011;51055;59.436;24.778;2022-10-17T00:03:33;6.35;;;1.42;;
40907;SDS011;51055;59.436;24.778;2022-10-17T00:06:20;9.82;;;1.73;;
40907;SDS011;51055;59.436;24.778;2022-10-17T00:08:47;7.18;;;1.40;;
40907;SDS011;51055;59.436;24.778;2022-10-17T00:11:17;6.40;;;1.40;;
40907;SDS011;51055;59.436;24.778;2022-10-17T00:13:47;7.75;;;1.73;;
40907;SDS011;51055;59.436;24.778;2022-10-17T00:16:32;9.25;;;2.00;;
40907;SDS011;51055;59.436;24.778;2022-10-17T00:19:04;8.80;;;1.80;;
40907;SDS011;51055;59.436;24.778;2022-10-17T00:21:33;8.30;;;1.48;;
40907;SDS011;51055;59.436;24.778;2022-10-17T00:24:01;7.35;;;1.77;;
40907;SDS011;51055;59.436;24.778;2022-10-17T00:26:28;9.70;;;1.90;;
40907;SDS011;51055;59.436;24.778;2022-10-17T00:28:56;11.13;;;1.92;;
40907;SDS011;51055;59.436;24.778;2022-10-17T00:31:24;12.43;;;1.80;;
40907;SDS011;51055;59.436;24.778;2022-10-17T00:33:51;11.75;;;1.88;;
40907;SDS011;51055;59.436;24.778;2022-10-17T00:36:21;8.18;;;1.95;;
40907;SDS011;51055;59.436;24.778;2022-10-17T00:38:51;11.02;;;2.00;;
40907;SDS011;51055;59.436;24.778;2022-10-17T00:41:21;12.90;;;1.83;;
40907;SDS011;51055;59.436;24.778;2022-10-17T00:46:19;9.88;;;1.77;;
40907;SDS011;51055;59.436;24.778;2022-10-17T00:48:48;11.45;;;2.20;;
40907;SDS011;51055;59.436;24.778;2022-10-17T00:51:19;11.25;;;1.95;;
40907;SDS011;51055;59.436;24.778;2022-10-17T00:53:54;11.48;;;1.83;;
40907;SDS011;51055;59.436;24.778;2022-10-17T00:56:22;13.02;;;2.13;;
40907;SDS011;51055;59.436;24.778;2022-10-17T00:58:50;9.77;;;1.90;;
40907;SDS011;51055;59.436;24.778;2022-10-17T01:01:18;11.38;;;2.22;;
40907;SDS011;51055;59.436;24.778;2022-10-17T01:03:46;12.52;;;1.85;;
40907;SDS011;51055;59.436;24.778;2022-10-17T01:06:13;9.98;;;2.10;;
40907;SDS011;51055;59.436;24.778;2022-10-17T01:08:41;11.45;;;2.42;;
40907;SDS011;51055;59.436;24.778;2022-10-17T01:17:02;11.90;;;2.08;;
40907;SDS011;51055;59.436;24.778;2022-10-17T01:19:46;10.15;;;2.20;;
40907;SDS011;51055;59.436;24.778;2022-10-17T01:27:46;4.50;;;1.27;;
40907;SDS011;51055;59.436;24.778;2022-10-17T01:33:22;6.57;;;1.88;;
40907;SDS011;51055;59.436;24.778;2022-10-17T01:36:07;9.10;;;2.03;;
40907;SDS011;51055;59.436;24.778;2022-10-17T01:41:33;6.30;;;1.27;;
40907;SDS011;51055;59.436;24.778;2022-10-17T01:44:08;9.70;;;1.70;;
40907;SDS011;51055;59.436;24.778;2022-10-17T01:46:56;10.75;;;1.67;;
40907;SDS011;51055;59.436;24.778;2022-10-17T01:49:30;6.60;;;1.63;;
40907;SDS011;51055;59.436;24.778;2022-10-17T01:52:08;6.47;;;1.30;;
40907;SDS011;51055;59.436;24.778;2022-10-17T01:54:41;7.60;;;1.45;;
40907;SDS011;51055;59.436;24.778;2022-10-17T01:57:13;5.40;;;1.15;;
40907;SDS011;51055;59.436;24.778;2022-10-17T01:59:46;4.72;;;1.23;;
40907;SDS011;51055;59.436;24.778;2022-10-17T02:02:17;9.07;;;1.42;;
40907;SDS011;51055;59.436;24.778;2022-10-17T02:04:47;6.05;;;1.13;;
40907;SDS011;51055;59.436;24.778;2022-10-17T02:07:17;6.10;;;1.40;;
40907;SDS011;51055;59.436;24.778;2022-10-17T02:09:45;7.23;;;1.67;;
40907;SDS011;51055;59.436;24.778;2022-10-17T02:21:10;7.10;;;1.50;;
40907;SDS011;51055;59.436;24.778;2022-10-17T02:29:19;10.90;;;1.60;;
40907;SDS011;51055;59.436;24.778;2022-10-17T02:32:11;7.00;;;1.23;;
40907;SDS011;51055;59.436;24.778;2022-10-17T02:34:45;9.15;;;1.73;;
40907;SDS011;51055;59.436;24.778;2022-10-17T02:37:18;7.35;;;1.63;;
40907;SDS011;51055;59.436;24.778;2022-10-17T02:39:51;7.38;;;1.77;;
40907;SDS011;51055;59.436;24.778;2022-10-17T02:42:22;4.85;;;1.30;;
40907;SDS011;51055;59.436;24.778;2022-10-17T02:44:52;7.63;;;1.65;;
40907;SDS011;51055;59.436;24.778;2022-10-17T02:47:26;6.95;;;1.80;;
40907;SDS011;51055;59.436;24.778;2022-10-17T02:49:58;8.05;;;1.65;;
40907;SDS011;51055;59.436;24.778;2022-10-17T02:57:48;11.35;;;1.50;;
40907;SDS011;51055;59.436;24.778;2022-10-17T03:00:20;9.93;;;1.38;;
40907;SDS011;51055;59.436;24.778;2022-10-17T03:02:50;5.07;;;1.17;;
40907;SDS011;51055;59.436;24.778;2022-10-17T03:05:20;7.68;;;1.73;;
40907;SDS011;51055;59.436;24.778;2022-10-17T03:07:49;7.20;;;1.98;;
40907;SDS011;51055;59.436;24.778;2022-10-17T03:10:17;7.60;;;1.43;;
40907;SDS011;51055;59.436;24.778;2022-10-17T03:12:45;6.78;;;1.38;;
40907;SDS011;51055;59.436;24.778;2022-10-17T03:15:13;8.40;;;1.73;;
40907;SDS011;51055;59.436;24.778;2022-10-17T03:17:41;12.27;;;1.70;;
40907;SDS011;51055;59.436;24.778;2022-10-17T03:20:09;7.38;;;1.60;;
40907;SDS011;51055;59.436;24.778;2022-10-17T03:22:37;8.50;;;1.60;;
40907;SDS011;51055;59.436;24.778;2022-10-17T03:25:05;9.18;;;1.75;;
40907;SDS011;51055;59.436;24.778;2022-10-17T03:27:32;7.00;;;1.83;;
40907;SDS011;51055;59.436;24.778;2022-10-17T03:30:00;10.43;;;1.73;;
40907;SDS011;51055;59.436;24.778;2022-10-17T03:32:31;9.63;;;1.77;;
40907;SDS011;51055;59.436;24.778;2022-10-17T03:35:00;11.10;;;1.83;;
40907;SDS011;51055;59.436;24.778;2022-10-17T03:37:29;10.45;;;1.83;;
40907;SDS011;51055;59.436;24.778;2022-10-17T03:39:57;8.40;;;1.80;;
40907;SDS011;51055;59.436;24.778;2022-10-17T03:42:25;9.00;;;2.00;;
40907;SDS011;51055;59.436;24.778;2022-10-17T03:44:52;8.85;;;1.65;;
40907;SDS011;51055;59.436;24.778;2022-10-17T03:47:20;8.15;;;1.80;;
40907;SDS011;51055;59.436;24.778;2022-10-17T03:49:47;9.38;;;1.73;;
40907;SDS011;51055;59.436;24.778;2022-10-17T03:52:15;8.73;;;1.70;;
40907;SDS011;51055;59.436;24.778;2022-10-17T03:54:42;7.13;;;1.60;;
40907;SDS011;51055;59.436;24.778;2022-10-17T03:57:10;8.35;;;1.65;;
40907;SDS011;51055;59.436;24.778;2022-10-17T03:59:38;6.80;;;1.27;;
40907;SDS011;51055;59.436;24.778;2022-10-17T04:02:05;8.45;;;1.70;;
40907;SDS011;51055;59.436;24.778;2022-10-17T04:04:33;9.40;;;1.55;;
40907;SDS011;51055;59.436;24.778;2022-10-17T04:07:00;10.32;;;1.77;;
40907;SDS011;51055;59.436;24.778;2022-10-17T04:09:28;8.50;;;1.73;;
40907;SDS011;51055;59.436;24.778;2022-10-17T04:11:56;5.93;;;1.38;;
40907;SDS011;51055;59.436;24.778;2022-10-17T04:14:23;5.82;;;1.20;;
40907;SDS011;51055;59.436;24.778;2022-10-17T04:16:51;7.28;;;1.50;;
40907;SDS011;51055;59.436;24.778;2022-10-17T04:19:19;4.63;;;1.13;;
40907;SDS011;51055;59.436;24.778;2022-10-17T04:21:47;10.32;;;1.92;;
40907;SDS011;51055;59.436;24.778;2022-10-17T04:24:14;8.13;;;1.52;;
40907;SDS011;51055;59.436;24.778;2022-10-17T04:26:42;8.10;;;1.65;;
40907;SDS011;51055;59.436;24.778;2022-10-17T04:29:10;7.10;;;1.40;;
40907;SDS011;51055;59.436;24.778;2022-10-17T04:31:38;6.18;;;1.48;;
40907;SDS011;51055;59.436;24.778;2022-10-17T04:34:05;7.68;;;1.50;;
40907;SDS011;51055;59.436;24.778;2022-10-17T04:36:33;7.47;;;1.50;;
40907;SDS011;51055;59.436;24.778;2022-10-17T04:39:00;7.10;;;1.40;;
40907;SDS011;51055;59.436;24.778;2022-10-17T04:41:30;8.02;;;1.33;;
40907;SDS011;51055;59.436;24.778;2022-10-17T04:43:57;8.10;;;1.67;;
40907;SDS011;51055;59.436;24.778;2022-10-17T04:46:25;4.93;;;1.33;;
40907;SDS011;51055;59.436;24.778;2022-10-17T04:48:53;8.82;;;1.80;;
40907;SDS011;51055;59.436;24.778;2022-10-17T04:51:20;4.60;;;1.20;;
40907;SDS011;51055;59.436;24.778;2022-10-17T04:53:52;10.07;;;1.45;;
40907;SDS011;51055;59.436;24.778;2022-10-17T04:56:21;5.30;;;1.15;;
40907;SDS011;51055;59.436;24.778;2022-10-17T04:58:50;6.25;;;1.42;;
40907;SDS011;51055;59.436;24.778;2022-10-17T05:01:19;8.05;;;1.35;;
40907;SDS011;51055;59.436;24.778;2022-10-17T05:03:49;6.28;;;1.38;;
40907;SDS011;51055;59.436;24.778;2022-10-17T05:06:21;8.75;;;1.40;;
40907;SDS011;51055;59.436;24.778;2022-10-17T05:08:50;6.50;;;1.65;;
40907;SDS011;51055;59.436;24.778;2022-10-17T05:11:25;11.00;;;1.70;;
40907;SDS011;51055;59.436;24.778;2022-10-17T05:13:55;7.43;;;2.08;;
40907;SDS011;51055;59.436;24.778;2022-10-17T05:16:24;7.30;;;1.52;;
40907;SDS011;51055;59.436;24.778;2022-10-17T05:18:53;5.78;;;1.30;;
40907;SDS011;51055;59.436;24.778;2022-10-17T05:21:23;7.15;;;1.55;;
40907;SDS011;51055;59.436;24.778;2022-10-17T05:23:52;8.35;;;1.67;;
40907;SDS011;51055;59.436;24.778;2022-10-17T05:26:20;6.28;;;1.48;;
40907;SDS011;51055;59.436;24.778;2022-10-17T05:28:48;10.68;;;1.63;;
40907;SDS011;51055;59.436;24.778;2022-10-17T05:31:18;6.15;;;1.45;;
40907;SDS011;51055;59.436;24.778;2022-10-17T05:33:46;6.90;;;1.48;;
40907;SDS011;51055;59.436;24.778;2022-10-17T05:36:14;7.68;;;1.23;;
40907;SDS011;51055;59.436;24.778;2022-10-17T05:38:41;6.35;;;1.35;;
40907;SDS011;51055;59.436;24.778;2022-10-17T05:41:09;9.02;;;1.70;;
40907;SDS011;51055;59.436;24.778;2022-10-17T05:43:37;8.63;;;2.15;;
40907;SDS011;51055;59.436;24.778;2022-10-17T05:46:05;8.10;;;1.80;;
40907;SDS011;51055;59.436;24.778;2022-10-17T05:48:33;8.68;;;1.98;;
40907;SDS011;51055;59.436;24.778;2022-10-17T05:51:05;7.55;;;1.35;;
40907;SDS011;51055;59.436;24.778;2022-10-17T05:53:38;10.18;;;1.65;;
40907;SDS011;51055;59.436;24.778;2022-10-17T05:56:07;9.55;;;1.67;;
40907;SDS011;51055;59.436;24.778;2022-10-17T05:58:38;7.57;;;1.83;;
40907;SDS011;51055;59.436;24.778;2022-10-17T06:01:27;8.20;;;1.60;;
40907;SDS011;51055;59.436;24.778;2022-10-17T06:03:55;6.33;;;1.40;;
40907;SDS011;51055;59.436;24.778;2022-10-17T06:06:23;7.60;;;1.60;;
40907;SDS011;51055;59.436;24.778;2022-10-17T06:08:50;7.70;;;1.67;;
40907;SDS011;51055;59.436;24.778;2022-10-17T06:11:18;8.50;;;1.55;;
40907;SDS011;51055;59.436;24.778;2022-10-17T06:13:46;6.30;;;1.60;;
40907;SDS011;51055;59.436;24.778;2022-10-17T06:16:13;8.43;;;1.67;;
40907;SDS011;51055;59.436;24.778;2022-10-17T06:18:41;9.57;;;1.65;;
40907;SDS011;51055;59.436;24.778;2022-10-17T06:21:09;6.28;;;1.42;;
40907;SDS011;51055;59.436;24.778;2022-10-17T06:23:38;7.70;;;1.70;;
40907;SDS011;51055;59.436;24.778;2022-10-17T06:26:06;12.85;;;2.45;;
40907;SDS011;51055;59.436;24.778;2022-10-17T06:28:33;7.88;;;1.77;;
40907;SDS011;51055;59.436;24.778;2022-10-17T06:31:05;14.70;;;1.83;;
40907;SDS011;51055;59.436;24.778;2022-10-17T06:33:35;6.22;;;1.48;;
40907;SDS011;51055;59.436;24.778;2022-10-17T06:36:03;9.60;;;1.90;;
40907;SDS011;51055;59.436;24.778;2022-10-17T06:38:33;8.50;;;1.75;;
40907;SDS011;51055;59.436;24.778;2022-10-17T06:41:22;6.25;;;1.30;;
40907;SDS011;51055;59.436;24.778;2022-10-17T06:43:49;12.73;;;1.83;;
40907;SDS011;51055;59.436;24.778;2022-10-17T06:46:17;8.75;;;1.30;;
40907;SDS011;51055;59.436;24.778;2022-10-17T06:51:13;6.93;;;1.52;;
40907;SDS011;51055;59.436;24.778;2022-10-17T06:53:41;7.55;;;1.40;;
40907;SDS011;51055;59.436;24.778;2022-10-17T06:56:08;8.85;;;1.90;;
40907;SDS011;51055;59.436;24.778;2022-10-17T06:58:37;7.77;;;1.73;;
40907;SDS011;51055;59.436;24.778;2022-10-17T07:03:37;7.43;;;1.17;;
40907;SDS011;51055;59.436;24.778;2022-10-17T07:06:06;8.30;;;1.92;;
40907;SDS011;51055;59.436;24.778;2022-10-17T07:08:33;7.35;;;1.50;;
40907;SDS011;51055;59.436;24.778;2022-10-17T07:11:08;7.97;;;1.42;;
40907;SDS011;51055;59.436;24.778;2022-10-17T07:13:37;9.20;;;1.48;;
40907;SDS011;51055;59.436;24.778;2022-10-17T07:16:06;8.65;;;1.77;;
40907;SDS011;51055;59.436;24.778;2022-10-17T07:18:34;7.90;;;1.60;;
40907;SDS011;51055;59.436;24.778;2022-10-17T07:21:02;8.93;;;1.35;;
40907;SDS011;51055;59.436;24.778;2022-10-17T07:23:30;5.72;;;1.20;;
40907;SDS011;51055;59.436;24.778;2022-10-17T07:26:00;7.55;;;1.20;;
40907;SDS011;51055;59.436;24.778;2022-10-17T07:28:29;4.93;;;1.40;;
40907;SDS011;51055;59.436;24.778;2022-10-17T07:31:02;7.05;;;1.38;;
40907;SDS011;51055;59.436;24.778;2022-10-17T07:33:33;6.30;;;1.35;;
40907;SDS011;51055;59.436;24.778;2022-10-17T07:36:02;4.82;;;0.88;;
40907;SDS011;51055;59.436;24.778;2022-10-17T07:38:31;6.43;;;1.48;;
40907;SDS011;51055;59.436;24.778;2022-10-17T07:41:00;9.63;;;1.40;;
40907;SDS011;51055;59.436;24.778;2022-10-17T07:43:29;6.65;;;1.40;;
40907;SDS011;51055;59.436;24.778;2022-10-17T07:45:56;5.77;;;0.87;;
40907;SDS011;51055;59.436;24.778;2022-10-17T07:48:24;6.28;;;1.27;;
40907;SDS011;51055;59.436;24.778;2022-10-17T07:50:52;7.50;;;1.35;;
40907;SDS011;51055;59.436;24.778;2022-10-17T07:53:20;7.75;;;1.40;;
40907;SDS011;51055;59.436;24.778;2022-10-17T07:55:48;4.73;;;1.10;;
40907;SDS011;51055;59.436;24.778;2022-10-17T07:58:16;7.78;;;1.95;;
40907;SDS011;51055;59.436;24.778;2022-10-17T08:00:43;6.80;;;1.58;;
40907;SDS011;51055;59.436;24.778;2022-10-17T08:03:14;7.90;;;1.92;;
40907;SDS011;51055;59.436;24.778;2022-10-17T08:05:42;8.13;;;1.13;;
40907;SDS011;51055;59.436;24.778;2022-10-17T08:08:10;7.50;;;1.88;;
40907;SDS011;51055;59.436;24.778;2022-10-17T08:10:38;7.28;;;1.50;;
40907;SDS011;51055;59.436;24.778;2022-10-17T08:13:05;6.10;;;1.17;;
40907;SDS011;51055;59.436;24.778;2022-10-17T08:15:35;6.85;;;1.40;;
40907;SDS011;51055;59.436;24.778;2022-10-17T08:18:03;5.80;;;1.10;;
40907;SDS011;51055;59.436;24.778;2022-10-17T08:20:31;7.35;;;1.48;;
40907;SDS011;51055;59.436;24.778;2022-10-17T08:22:59;5.38;;;1.38;;
40907;SDS011;51055;59.436;24.778;2022-10-17T08:25:27;5.30;;;1.30;;
40907;SDS011;51055;59.436;24.778;2022-10-17T08:27:54;5.45;;;1.25;;
40907;SDS011;51055;59.436;24.778;2022-10-17T08:30:22;4.90;;;1.70;;
40907;SDS011;51055;59.436;24.778;2022-10-17T08:32:50;7.28;;;1.38;;
40907;SDS011;51055;59.436;24.778;2022-10-17T08:35:18;5.18;;;1.10;;
40907;SDS011;51055;59.436;24.778;2022-10-17T08:37:48;7.50;;;1.35;;
40907;SDS011;51055;59.436;24.778;2022-10-17T08:40:18;4.85;;;1.00;;
40907;SDS011;51055;59.436;24.778;2022-10-17T08:42:52;5.82;;;1.20;;
40907;SDS011;51055;59.436;24.778;2022-10-17T08:45:31;5.68;;;1.48;;
40907;SDS011;51055;59.436;24.778;2022-10-17T08:48:08;4.10;;;1.27;;
40907;SDS011;51055;59.436;24.778;2022-10-17T08:55:59;7.32;;;1.27;;
40907;SDS011;51055;59.436;24.778;2022-10-17T08:58:35;4.90;;;1.10;;
40907;SDS011;51055;59.436;24.778;2022-10-17T09:06:30;4.90;;;1.20;;
40907;SDS011;51055;59.436;24.778;2022-10-17T09:11:47;6.57;;;1.40;;
40907;SDS011;51055;59.436;24.778;2022-10-17T09:20:13;5.03;;;1.13;;
40907;SDS011;51055;59.436;24.778;2022-10-17T09:25:25;3.80;;;1.10;;
40907;SDS011;51055;59.436;24.778;2022-10-17T09:28:05;6.65;;;1.30;;
40907;SDS011;51055;59.436;24.778;2022-10-17T09:30:48;5.50;;;1.20;;
40907;SDS011;51055;59.436;24.778;2022-10-17T09:33:24;8.00;;;1.20;;
40907;SDS011;51055;59.436;24.778;2022-10-17T09:36:18;7.05;;;1.30;;
40907;SDS011;51055;59.436;24.778;2022-10-17T09:38:52;5.22;;;1.25;;
40907;SDS011;51055;59.436;24.778;2022-10-17T09:41:25;6.40;;;1.45;;
40907;SDS011;51055;59.436;24.778;2022-10-17T09:46:43;7.13;;;1.30;;
40907;SDS011;51055;59.436;24.778;2022-10-17T09:49:34;6.18;;;1.35;;
40907;SDS011;51055;59.436;24.778;2022-10-17T09:52:05;6.22;;;1.17;;
40907;SDS011;51055;59.436;24.778;2022-10-17T09:55:02;5.53;;;1.45;;
40907;SDS011;51055;59.436;24.778;2022-10-17T09:57:49;8.07;;;1.50;;
40907;SDS011;51055;59.436;24.778;2022-10-17T10:00:26;6.90;;;1.50;;
40907;SDS011;51055;59.436;24.778;2022-10-17T10:05:58;4.05;;;1.00;;
40907;SDS011;51055;59.436;24.778;2022-10-17T10:08:33;7.30;;;1.35;;
40907;SDS011;51055;59.436;24.778;2022-10-17T10:11:06;7.38;;;1.40;;
40907;SDS011;51055;59.436;24.778;2022-10-17T10:13:40;4.15;;;1.30;;
40907;SDS011;51055;59.436;24.778;2022-10-17T10:18:56;6.15;;;1.20;;
40907;SDS011;51055;59.436;24.778;2022-10-17T10:21:25;9.05;;;1.77;;
40907;SDS011;51055;59.436;24.778;2022-10-17T10:26:48;6.30;;;1.40;;
40907;SDS011;51055;59.436;24.778;2022-10-17T10:34:33;5.88;;;1.17;;
40907;SDS011;51055;59.436;24.778;2022-10-17T10:39:33;5.32;;;1.33;;
40907;SDS011;51055;59.436;24.778;2022-10-17T10:42:05;4.82;;;1.40;;
40907;SDS011;51055;59.436;24.778;2022-10-17T10:47:15;5.65;;;1.00;;
40907;SDS011;51055;59.436;24.778;2022-10-17T10:49:49;4.75;;;1.30;;
40907;SDS011;51055;59.436;24.778;2022-10-17T10:52:21;5.47;;;1.30;;
40907;SDS011;51055;59.436;24.778;2022-10-17T10:55:02;7.40;;;1.50;;
40907;SDS011;51055;59.436;24.778;2022-10-17T10:57:43;4.18;;;1.13;;
40907;SDS011;51055;59.436;24.778;2022-10-17T11:00:18;4.68;;;1.35;;
40907;SDS011;51055;59.436;24.778;2022-10-17T11:08:51;7.18;;;1.08;;
40907;SDS011;51055;59.436;24.778;2022-10-17T11:11:33;3.83;;;1.17;;
40907;SDS011;51055;59.436;24.778;2022-10-17T11:14:10;4.22;;;1.15;;
40907;SDS011;51055;59.436;24.778;2022-10-17T11:16:55;5.30;;;1.25;;
40907;SDS011;51055;59.436;24.778;2022-10-17T11:22:31;4.85;;;1.00;;
40907;SDS011;51055;59.436;24.778;2022-10-17T11:25:04;4.68;;;1.20;;
40907;SDS011;51055;59.436;24.778;2022-10-17T11:27:43;4.75;;;1.30;;
40907;SDS011;51055;59.436;24.778;2022-10-17T11:30:13;6.93;;;1.92;;
40907;SDS011;51055;59.436;24.778;2022-10-17T11:32:47;5.55;;;1.30;;
40907;SDS011;51055;59.436;24.778;2022-10-17T11:35:23;5.78;;;1.27;;
40907;SDS011;51055;59.436;24.778;2022-10-17T11:37:57;6.97;;;1.65;;
40907;SDS011;51055;59.436;24.778;2022-10-17T11:40:37;6.20;;;1.25;;
40907;SDS011;51055;59.436;24.778;2022-10-17T11:45:41;8.60;;;1.20;;
40907;SDS011;51055;59.436;24.778;2022-10-17T11:48:19;6.57;;;1.20;;
40907;SDS011;51055;59.436;24.778;2022-10-17T11:50:59;7.70;;;1.40;;
40907;SDS011;51055;59.436;24.778;2022-10-17T11:56:35;4.45;;;1.10;;
40907;SDS011;51055;59.436;24.778;2022-10-17T12:01:38;5.68;;;1.23;;
40907;SDS011;51055;59.436;24.778;2022-10-17T12:12:39;6.43;;;1.10;;
40907;SDS011;51055;59.436;24.778;2022-10-17T12:17:42;4.70;;;1.13;;
40907;SDS011;51055;59.436;24.778;2022-10-17T12:25:33;5.80;;;1.23;;
40907;SDS011;51055;59.436;24.778;2022-10-17T12:30:51;7.78;;;1.50;;
40907;SDS011;51055;59.436;24.778;2022-10-17T12:33:36;5.63;;;1.42;;
40907;SDS011;51055;59.436;24.778;2022-10-17T12:38:45;5.38;;;1.30;;
40907;SDS011;51055;59.436;24.778;2022-10-17T12:41:18;8.57;;;1.42;;
40907;SDS011;51055;59.436;24.778;2022-10-17T12:46:41;7.22;;;1.60;;
40907;SDS011;51055;59.436;24.778;2022-10-17T12:49:41;5.73;;;1.67;;
40907;SDS011;51055;59.436;24.778;2022-10-17T12:55:04;5.78;;;1.40;;
40907;SDS011;51055;59.436;24.778;2022-10-17T13:00:26;6.75;;;1.30;;
40907;SDS011;51055;59.436;24.778;2022-10-17T13:03:13;5.43;;;1.20;;
40907;SDS011;51055;59.436;24.778;2022-10-17T13:05:52;5.53;;;1.10;;
40907;SDS011;51055;59.436;24.778;2022-10-17T13:08:24;5.35;;;1.05;;
40907;SDS011;51055;59.436;24.778;2022-10-17T13:10:55;4.28;;;1.30;;
40907;SDS011;51055;59.436;24.778;2022-10-17T13:19:12;6.68;;;1.38;;
40907;SDS011;51055;59.436;24.778;2022-10-17T13:24:30;8.13;;;1.63;;
40907;SDS011;51055;59.436;24.778;2022-10-17T13:32:25;8.18;;;1.50;;
40907;SDS011;51055;59.436;24.778;2022-10-17T13:37:43;6.15;;;1.50;;
40907;SDS011;51055;59.436;24.778;2022-10-17T13:40:20;8.40;;;1.38;;
40907;SDS011;51055;59.436;24.778;2022-10-17T13:43:14;6.28;;;1.60;;
40907;SDS011;51055;59.436;24.778;2022-10-17T13:45:46;6.95;;;1.38;;
40907;SDS011;51055;59.436;24.778;2022-10-17T13:48:19;5.97;;;1.27;;
40907;SDS011;51055;59.436;24.778;2022-10-17T13:50:50;5.05;;;1.58;;
40907;SDS011;51055;59.436;24.778;2022-10-17T13:53:25;6.88;;;1.50;;
40907;SDS011;51055;59.436;24.778;2022-10-17T13:58:46;6.43;;;1.42;;
40907;SDS011;51055;59.436;24.778;2022-10-17T14:01:15;5.88;;;1.38;;
40907;SDS011;51055;59.436;24.778;2022-10-17T14:03:45;4.78;;;1.30;;
40907;SDS011;51055;59.436;24.778;2022-10-17T14:06:21;5.82;;;1.33;;
40907;SDS011;51055;59.436;24.778;2022-10-17T14:09:03;5.82;;;1.30;;
40907;SDS011;51055;59.436;24.778;2022-10-17T14:11:40;7.25;;;1.70;;
40907;SDS011;51055;59.436;24.778;2022-10-17T14:14:20;9.07;;;1.55;;
40907;SDS011;51055;59.436;24.778;2022-10-17T14:16:51;5.97;;;1.70;;
40907;SDS011;51055;59.436;24.778;2022-10-17T14:19:26;4.85;;;1.50;;
40907;SDS011;51055;59.436;24.778;2022-10-17T14:24:49;4.00;;;1.27;;
40907;SDS011;51055;59.436;24.778;2022-10-17T14:29:57;7.28;;;1.88;;
40907;SDS011;51055;59.436;24.778;2022-10-17T14:32:31;10.25;;;1.80;;
40907;SDS011;51055;59.436;24.778;2022-10-17T14:35:01;8.73;;;2.10;;
40907;SDS011;51055;59.436;24.778;2022-10-17T14:37:51;7.70;;;1.90;;
40907;SDS011;51055;59.436;24.778;2022-10-17T14:40:24;11.13;;;2.05;;
40907;SDS011;51055;59.436;24.778;2022-10-17T14:42:54;7.47;;;1.75;;
40907;SDS011;51055;59.436;24.778;2022-10-17T14:48:03;8.18;;;1.65;;
40907;SDS011;51055;59.436;24.778;2022-10-17T14:50:36;6.32;;;1.73;;
40907;SDS011;51055;59.436;24.778;2022-10-17T14:55:38;8.02;;;1.80;;
40907;SDS011;51055;59.436;24.778;2022-10-17T14:58:23;6.93;;;1.75;;
40907;SDS011;51055;59.436;24.778;2022-10-17T15:00:54;7.07;;;1.73;;
40907;SDS011;51055;59.436;24.778;2022-10-17T15:04:06;6.18;;;1.80;;
40907;SDS011;51055;59.436;24.778;2022-10-17T15:06:55;8.85;;;1.95;;
40907;SDS011;51055;59.436;24.778;2022-10-17T15:09:23;8.10;;;2.20;;
40907;SDS011;51055;59.436;24.778;2022-10-17T15:11:55;7.72;;;2.33;;
40907;SDS011;51055;59.436;24.778;2022-10-17T15:14:27;10.52;;;2.10;;
40907;SDS011;51055;59.436;24.778;2022-10-17T15:16:55;7.55;;;1.50;;
40907;SDS011;51055;59.436;24.778;2022-10-17T15:19:22;10.07;;;1.80;;
40907;SDS011;51055;59.436;24.778;2022-10-17T15:21:50;10.18;;;2.08;;
40907;SDS011;51055;59.436;24.778;2022-10-17T15:24:18;9.25;;;2.05;;
40907;SDS011;51055;59.436;24.778;2022-10-17T15:26:45;13.60;;;2.05;;
40907;SDS011;51055;59.436;24.778;2022-10-17T15:29:14;9.50;;;1.95;;
40907;SDS011;51055;59.436;24.778;2022-10-17T15:31:42;8.60;;;2.05;;
40907;SDS011;51055;59.436;24.778;2022-10-17T15:34:09;6.20;;;1.52;;
40907;SDS011;51055;59.436;24.778;2022-10-17T15:36:40;8.20;;;1.80;;
40907;SDS011;51055;59.436;24.778;2022-10-17T15:39:14;6.80;;;1.80;;
40907;SDS011;51055;59.436;24.778;2022-10-17T15:41:42;8.82;;;1.90;;
40907;SDS011;51055;59.436;24.778;2022-10-17T15:44:10;12.07;;;2.45;;
40907;SDS011;51055;59.436;24.778;2022-10-17T15:46:38;7.60;;;1.83;;
40907;SDS011;51055;59.436;24.778;2022-10-17T15:49:12;9.85;;;2.33;;
40907;SDS011;51055;59.436;24.778;2022-10-17T15:51:41;7.10;;;1.73;;
40907;SDS011;51055;59.436;24.778;2022-10-17T15:54:08;8.55;;;2.22;;
40907;SDS011;51055;59.436;24.778;2022-10-17T15:56:37;12.57;;;3.17;;
40907;SDS011;51055;59.436;24.778;2022-10-17T15:59:11;10.35;;;2.92;;
40907;SDS011;51055;59.436;24.778;2022-10-17T16:01:41;7.70;;;2.50;;
40907;SDS011;51055;59.436;24.778;2022-10-17T16:04:10;8.37;;;2.30;;
40907;SDS011;51055;59.436;24.778;2022-10-17T16:06:41;9.07;;;2.30;;
40907;SDS011;51055;59.436;24.778;2022-10-17T16:09:09;11.65;;;2.42;;
40907;SDS011;51055;59.436;24.778;2022-10-17T16:11:40;13.73;;;2.35;;
40907;SDS011;51055;59.436;24.778;2022-10-17T16:14:13;8.55;;;2.45;;
40907;SDS011;51055;59.436;24.778;2022-10-17T16:16:42;7.82;;;2.70;;
40907;SDS011;51055;59.436;24.778;2022-10-17T16:19:10;6.20;;;1.67;;
40907;SDS011;51055;59.436;24.778;2022-10-17T16:21:39;12.67;;;2.60;;
40907;SDS011;51055;59.436;24.778;2022-10-17T16:26:39;10.52;;;2.53;;
40907;SDS011;51055;59.436;24.778;2022-10-17T16:29:07;7.55;;;2.25;;
40907;SDS011;51055;59.436;24.778;2022-10-17T16:34:06;12.10;;;2.65;;
40907;SDS011;51055;59.436;24.778;2022-10-17T16:36:34;10.38;;;2.60;;
40907;SDS011;51055;59.436;24.778;2022-10-17T16:39:02;12.13;;;2.33;;
40907;SDS011;51055;59.436;24.778;2022-10-17T16:41:34;10.10;;;2.05;;
40907;SDS011;51055;59.436;24.778;2022-10-17T16:44:04;9.98;;;2.60;;
40907;SDS011;51055;59.436;24.778;2022-10-17T16:46:35;8.45;;;2.15;;
40907;SDS011;51055;59.436;24.778;2022-10-17T16:49:03;9.35;;;2.50;;
40907;SDS011;51055;59.436;24.778;2022-10-17T16:51:32;10.88;;;3.13;;
40907;SDS011;51055;59.436;24.778;2022-10-17T16:54:02;15.80;;;2.63;;
40907;SDS011;51055;59.436;24.778;2022-10-17T16:56:30;8.07;;;2.70;;
40907;SDS011;51055;59.436;24.778;2022-10-17T16:58:59;10.65;;;2.67;;
40907;SDS011;51055;59.436;24.778;2022-10-17T17:01:27;11.27;;;2.80;;
40907;SDS011;51055;59.436;24.778;2022-10-17T17:03:55;9.80;;;2.35;;
40907;SDS011;51055;59.436;24.778;2022-10-17T17:06:25;11.80;;;3.08;;
40907;SDS011;51055;59.436;24.778;2022-10-17T17:08:55;9.88;;;2.20;;
40907;SDS011;51055;59.436;24.778;2022-10-17T17:11:24;11.05;;;2.60;;
40907;SDS011;51055;59.436;24.778;2022-10-17T17:13:54;11.40;;;2.70;;
40907;SDS011;51055;59.436;24.778;2022-10-17T17:16:23;13.23;;;3.03;;
40907;SDS011;51055;59.436;24.778;2022-10-17T17:18:53;10.23;;;2.72;;
40907;SDS011;51055;59.436;24.778;2022-10-17T17:21:22;10.05;;;2.38;;
40907;SDS011;51055;59.436;24.778;2022-10-17T17:23:50;10.10;;;2.95;;
40907;SDS011;51055;59.436;24.778;2022-10-17T17:26:18;12.85;;;3.15;;
40907;SDS011;51055;59.436;24.778;2022-10-17T17:28:48;11.35;;;2.35;;
40907;SDS011;51055;59.436;24.778;2022-10-17T17:31:20;12.88;;;2.50;;
40907;SDS011;51055;59.436;24.778;2022-10-17T17:33:51;10.77;;;2.13;;
40907;SDS011;51055;59.436;24.778;2022-10-17T17:39:09;8.93;;;2.05;;
40907;SDS011;51055;59.436;24.778;2022-10-17T17:41:39;9.32;;;2.80;;
40907;SDS011;51055;59.436;24.778;2022-10-17T17:44:09;9.60;;;2.50;;
40907;SDS011;51055;59.436;24.778;2022-10-17T17:46:43;11.02;;;2.40;;
40907;SDS011;51055;59.436;24.778;2022-10-17T17:49:11;11.40;;;2.35;;
40907;SDS011;51055;59.436;24.778;2022-10-17T17:51:38;10.85;;;1.92;;